sensor_id;sensor_type;location;lat;lon;timestamp;P1;durP1;ratioP1;P2;durP2;ratioP2
69126;SDS011;56688;50.234;19.292;2022-10-18T00:00:00;38.00;;;19.50;;
69126;SDS011;56688;50.234;19.292;2022-10-18T00:02:30;36.70;;;19.00;;
69126;SDS011;56688;50.234;19.292;2022-10-18T00:04:56;35.50;;;19.50;;
69126;SDS011;56688;50.234;19.292;2022-10-18T00:07:23;36.40;;;20.00;;
69126;SDS011;56688;50.234;19.292;2022-10-18T00:09:50;34.30;;;18.00;;
69126;SDS011;56688;50.234;19.292;2022-10-18T00:12:17;32.50;;;18.40;;
69126;SDS011;56688;50.234;19.292;2022-10-18T00:14:46;35.60;;;18.80;;
69126;SDS011;56688;50.234;19.292;2022-10-18T00:17:15;29.60;;;17.00;;
69126;SDS011;56688;50.234;19.292;2022-10-18T00:19:42;31.90;;;16.20;;
69126;SDS011;56688;50.234;19.292;2022-10-18T00:22:09;24.70;;;15.20;;
69126;SDS011;56688;50.234;19.292;2022-10-18T00:24:36;30.10;;;16.90;;
69126;SDS011;56688;50.234;19.292;2022-10-18T00:27:03;32.40;;;17.60;;
69126;SDS011;56688;50.234;19.292;2022-10-18T00:29:30;28.70;;;17.20;;
69126;SDS011;56688;50.234;19.292;2022-10-18T00:31:56;30.20;;;16.30;;
69126;SDS011;56688;50.234;19.292;2022-10-18T00:34:23;33.40;;;16.90;;
69126;SDS011;56688;50.234;19.292;2022-10-18T00:36:50;34.30;;;17.00;;
69126;SDS011;56688;50.234;19.292;2022-10-18T00:39:17;36.80;;;17.00;;
69126;SDS011;56688;50.234;19.292;2022-10-18T00:41:46;36.00;;;17.70;;
69126;SDS011;56688;50.234;19.292;2022-10-18T00:46:41;38.00;;;18.70;;
69126;SDS011;56688;50.234;19.292;2022-10-18T00:49:15;38.40;;;18.40;;
69126;SDS011;56688;50.234;19.292;2022-10-18T00:54:15;36.10;;;17.90;;
69126;SDS011;56688;50.234;19.292;2022-10-18T00:56:44;38.80;;;17.60;;
69126;SDS011;56688;50.234;19.292;2022-10-18T00:59:12;31.30;;;15.90;;
69126;SDS011;56688;50.234;19.292;2022-10-18T01:01:41;32.10;;;15.90;;
69126;SDS011;56688;50.234;19.292;2022-10-18T01:04:09;29.70;;;16.00;;
69126;SDS011;56688;50.234;19.292;2022-10-18T01:06:38;32.70;;;16.60;;
69126;SDS011;56688;50.234;19.292;2022-10-18T01:09:19;35.10;;;18.00;;
69126;SDS011;56688;50.234;19.292;2022-10-18T01:11:58;35.10;;;19.40;;
69126;SDS011;56688;50.234;19.292;2022-10-18T01:14:40;34.70;;;17.20;;
69126;SDS011;56688;50.234;19.292;2022-10-18T01:17:17;33.50;;;16.60;;
69126;SDS011;56688;50.234;19.292;2022-10-18T01:19:52;28.20;;;14.90;;
69126;SDS011;56688;50.234;19.292;2022-10-18T01:22:43;26.60;;;14.10;;
69126;SDS011;56688;50.234;19.292;2022-10-18T01:25:19;24.40;;;13.40;;
69126;SDS011;56688;50.234;19.292;2022-10-18T01:27:57;25.10;;;14.30;;
69126;SDS011;56688;50.234;19.292;2022-10-18T01:30:31;27.40;;;14.10;;
69126;SDS011;56688;50.234;19.292;2022-10-18T01:33:02;29.00;;;14.80;;
69126;SDS011;56688;50.234;19.292;2022-10-18T01:35:36;26.60;;;13.10;;
69126;SDS011;56688;50.234;19.292;2022-10-18T01:38:09;26.70;;;14.20;;
69126;SDS011;56688;50.234;19.292;2022-10-18T01:40:39;29.70;;;16.70;;
69126;SDS011;56688;50.234;19.292;2022-10-18T01:43:09;26.10;;;16.00;;
69126;SDS011;56688;50.234;19.292;2022-10-18T01:45:38;26.10;;;15.00;;
69126;SDS011;56688;50.234;19.292;2022-10-18T01:48:05;30.20;;;14.90;;
69126;SDS011;56688;50.234;19.292;2022-10-18T01:50:34;31.40;;;16.20;;
69126;SDS011;56688;50.234;19.292;2022-10-18T01:53:01;28.30;;;15.20;;
69126;SDS011;56688;50.234;19.292;2022-10-18T01:58:16;46.20;;;22.10;;
69126;SDS011;56688;50.234;19.292;2022-10-18T02:00:48;33.80;;;18.40;;
69126;SDS011;56688;50.234;19.292;2022-10-18T02:03:24;43.00;;;22.30;;
69126;SDS011;56688;50.234;19.292;2022-10-18T02:05:59;39.40;;;21.70;;
69126;SDS011;56688;50.234;19.292;2022-10-18T02:08:34;45.20;;;22.30;;
69126;SDS011;56688;50.234;19.292;2022-10-18T02:11:08;37.40;;;19.80;;
69126;SDS011;56688;50.234;19.292;2022-10-18T02:13:40;36.00;;;18.70;;
69126;SDS011;56688;50.234;19.292;2022-10-18T02:16:13;34.50;;;18.90;;
69126;SDS011;56688;50.234;19.292;2022-10-18T02:18:47;36.50;;;18.40;;
69126;SDS011;56688;50.234;19.292;2022-10-18T02:21:17;36.40;;;19.10;;
69126;SDS011;56688;50.234;19.292;2022-10-18T02:23:46;34.00;;;19.10;;
69126;SDS011;56688;50.234;19.292;2022-10-18T02:26:14;36.50;;;19.40;;
69126;SDS011;56688;50.234;19.292;2022-10-18T02:28:41;38.30;;;18.70;;
69126;SDS011;56688;50.234;19.292;2022-10-18T02:33:38;33.50;;;16.50;;
69126;SDS011;56688;50.234;19.292;2022-10-18T02:36:17;31.20;;;17.00;;
69126;SDS011;56688;50.234;19.292;2022-10-18T02:38:51;29.70;;;16.50;;
69126;SDS011;56688;50.234;19.292;2022-10-18T02:41:22;31.80;;;16.30;;
69126;SDS011;56688;50.234;19.292;2022-10-18T02:43:51;31.60;;;16.20;;
69126;SDS011;56688;50.234;19.292;2022-10-18T02:46:18;26.50;;;16.80;;
69126;SDS011;56688;50.234;19.292;2022-10-18T02:48:46;34.80;;;18.40;;
69126;SDS011;56688;50.234;19.292;2022-10-18T02:51:13;29.80;;;15.90;;
69126;SDS011;56688;50.234;19.292;2022-10-18T02:53:40;28.20;;;14.10;;
69126;SDS011;56688;50.234;19.292;2022-10-18T02:56:08;23.30;;;13.80;;
69126;SDS011;56688;50.234;19.292;2022-10-18T02:58:35;23.90;;;13.20;;
69126;SDS011;56688;50.234;19.292;2022-10-18T03:01:02;16.00;;;10.60;;
69126;SDS011;56688;50.234;19.292;2022-10-18T03:03:29;30.30;;;15.60;;
69126;SDS011;56688;50.234;19.292;2022-10-18T03:05:56;28.50;;;15.80;;
69126;SDS011;56688;50.234;19.292;2022-10-18T03:08:22;26.90;;;14.80;;
69126;SDS011;56688;50.234;19.292;2022-10-18T03:10:49;24.10;;;14.00;;
69126;SDS011;56688;50.234;19.292;2022-10-18T03:13:16;26.00;;;14.00;;
69126;SDS011;56688;50.234;19.292;2022-10-18T03:15:43;17.80;;;11.30;;
69126;SDS011;56688;50.234;19.292;2022-10-18T03:18:10;24.20;;;14.70;;
69126;SDS011;56688;50.234;19.292;2022-10-18T03:20:37;30.40;;;15.10;;
69126;SDS011;56688;50.234;19.292;2022-10-18T03:23:03;26.50;;;14.30;;
69126;SDS011;56688;50.234;19.292;2022-10-18T03:25:31;27.90;;;13.60;;
69126;SDS011;56688;50.234;19.292;2022-10-18T03:27:58;15.90;;;8.60;;
69126;SDS011;56688;50.234;19.292;2022-10-18T03:30:24;22.00;;;12.00;;
69126;SDS011;56688;50.234;19.292;2022-10-18T03:32:51;23.70;;;12.40;;
69126;SDS011;56688;50.234;19.292;2022-10-18T03:35:19;29.30;;;15.50;;
69126;SDS011;56688;50.234;19.292;2022-10-18T03:37:46;30.70;;;15.80;;
69126;SDS011;56688;50.234;19.292;2022-10-18T03:40:13;27.40;;;15.00;;
69126;SDS011;56688;50.234;19.292;2022-10-18T03:42:40;27.20;;;14.70;;
69126;SDS011;56688;50.234;19.292;2022-10-18T03:45:07;29.00;;;15.80;;
69126;SDS011;56688;50.234;19.292;2022-10-18T03:47:34;34.50;;;18.90;;
69126;SDS011;56688;50.234;19.292;2022-10-18T03:50:02;21.10;;;11.20;;
69126;SDS011;56688;50.234;19.292;2022-10-18T03:52:29;35.70;;;19.80;;
69126;SDS011;56688;50.234;19.292;2022-10-18T03:54:56;32.50;;;18.00;;
69126;SDS011;56688;50.234;19.292;2022-10-18T03:57:23;31.50;;;17.70;;
69126;SDS011;56688;50.234;19.292;2022-10-18T03:59:49;34.70;;;18.70;;
69126;SDS011;56688;50.234;19.292;2022-10-18T04:02:16;27.20;;;13.80;;
69126;SDS011;56688;50.234;19.292;2022-10-18T04:04:43;31.70;;;17.00;;
69126;SDS011;56688;50.234;19.292;2022-10-18T04:07:10;21.20;;;12.50;;
69126;SDS011;56688;50.234;19.292;2022-10-18T04:09:37;21.60;;;11.90;;
69126;SDS011;56688;50.234;19.292;2022-10-18T04:12:04;29.10;;;17.20;;
69126;SDS011;56688;50.234;19.292;2022-10-18T04:14:31;34.40;;;20.10;;
69126;SDS011;56688;50.234;19.292;2022-10-18T04:16:57;30.10;;;18.90;;
69126;SDS011;56688;50.234;19.292;2022-10-18T04:19:24;41.70;;;24.40;;
69126;SDS011;56688;50.234;19.292;2022-10-18T04:21:53;32.50;;;20.50;;
69126;SDS011;56688;50.234;19.292;2022-10-18T04:24:19;34.70;;;20.50;;
69126;SDS011;56688;50.234;19.292;2022-10-18T04:26:46;40.60;;;21.60;;
69126;SDS011;56688;50.234;19.292;2022-10-18T04:29:13;38.70;;;22.30;;
69126;SDS011;56688;50.234;19.292;2022-10-18T04:31:41;36.30;;;22.20;;
69126;SDS011;56688;50.234;19.292;2022-10-18T04:34:09;44.40;;;22.40;;
69126;SDS011;56688;50.234;19.292;2022-10-18T04:36:36;24.10;;;13.60;;
69126;SDS011;56688;50.234;19.292;2022-10-18T04:39:02;26.30;;;15.60;;
69126;SDS011;56688;50.234;19.292;2022-10-18T04:41:30;44.50;;;23.30;;
69126;SDS011;56688;50.234;19.292;2022-10-18T04:43:57;24.90;;;14.40;;
69126;SDS011;56688;50.234;19.292;2022-10-18T04:46:24;43.10;;;21.30;;
69126;SDS011;56688;50.234;19.292;2022-10-18T04:48:51;38.60;;;20.90;;
69126;SDS011;56688;50.234;19.292;2022-10-18T04:51:18;38.80;;;21.50;;
69126;SDS011;56688;50.234;19.292;2022-10-18T04:53:44;27.60;;;16.00;;
69126;SDS011;56688;50.234;19.292;2022-10-18T04:56:11;35.30;;;19.00;;
69126;SDS011;56688;50.234;19.292;2022-10-18T04:58:38;33.30;;;18.70;;
69126;SDS011;56688;50.234;19.292;2022-10-18T05:01:05;25.50;;;13.30;;
69126;SDS011;56688;50.234;19.292;2022-10-18T05:03:33;36.20;;;19.20;;
69126;SDS011;56688;50.234;19.292;2022-10-18T05:06:00;34.20;;;20.50;;
69126;SDS011;56688;50.234;19.292;2022-10-18T05:08:28;42.40;;;19.90;;
69126;SDS011;56688;50.234;19.292;2022-10-18T05:10:56;34.20;;;20.20;;
69126;SDS011;56688;50.234;19.292;2022-10-18T05:13:23;34.90;;;20.10;;
69126;SDS011;56688;50.234;19.292;2022-10-18T05:15:50;24.10;;;14.70;;
69126;SDS011;56688;50.234;19.292;2022-10-18T05:18:17;27.20;;;16.00;;
69126;SDS011;56688;50.234;19.292;2022-10-18T05:20:45;21.20;;;12.60;;
69126;SDS011;56688;50.234;19.292;2022-10-18T05:23:12;42.90;;;19.90;;
69126;SDS011;56688;50.234;19.292;2022-10-18T05:25:39;34.70;;;20.20;;
69126;SDS011;56688;50.234;19.292;2022-10-18T05:28:08;54.80;;;27.60;;
69126;SDS011;56688;50.234;19.292;2022-10-18T05:30:59;29.20;;;15.80;;
69126;SDS011;56688;50.234;19.292;2022-10-18T05:33:27;34.90;;;19.40;;
69126;SDS011;56688;50.234;19.292;2022-10-18T05:35:55;31.60;;;16.90;;
69126;SDS011;56688;50.234;19.292;2022-10-18T05:38:22;42.00;;;23.20;;
69126;SDS011;56688;50.234;19.292;2022-10-18T05:40:49;42.30;;;22.70;;
69126;SDS011;56688;50.234;19.292;2022-10-18T05:43:16;40.20;;;22.40;;
69126;SDS011;56688;50.234;19.292;2022-10-18T05:45:47;38.20;;;22.70;;
69126;SDS011;56688;50.234;19.292;2022-10-18T05:48:15;40.60;;;21.90;;
69126;SDS011;56688;50.234;19.292;2022-10-18T05:50:42;29.70;;;17.00;;
69126;SDS011;56688;50.234;19.292;2022-10-18T05:53:10;41.80;;;23.00;;
69126;SDS011;56688;50.234;19.292;2022-10-18T05:55:59;38.50;;;21.80;;
69126;SDS011;56688;50.234;19.292;2022-10-18T05:58:27;43.80;;;21.50;;
69126;SDS011;56688;50.234;19.292;2022-10-18T06:00:53;43.00;;;21.20;;
69126;SDS011;56688;50.234;19.292;2022-10-18T06:03:24;76.00;;;36.40;;
69126;SDS011;56688;50.234;19.292;2022-10-18T06:05:57;74.20;;;34.90;;
69126;SDS011;56688;50.234;19.292;2022-10-18T06:08:25;52.50;;;27.10;;
69126;SDS011;56688;50.234;19.292;2022-10-18T06:10:52;40.00;;;21.70;;
69126;SDS011;56688;50.234;19.292;2022-10-18T06:13:20;48.50;;;24.80;;
69126;SDS011;56688;50.234;19.292;2022-10-18T06:15:47;27.60;;;14.80;;
69126;SDS011;56688;50.234;19.292;2022-10-18T06:18:14;42.40;;;22.80;;
69126;SDS011;56688;50.234;19.292;2022-10-18T06:20:41;48.10;;;24.30;;
69126;SDS011;56688;50.234;19.292;2022-10-18T06:23:08;45.40;;;23.20;;
69126;SDS011;56688;50.234;19.292;2022-10-18T06:25:35;38.40;;;21.90;;
69126;SDS011;56688;50.234;19.292;2022-10-18T06:28:04;32.80;;;20.50;;
69126;SDS011;56688;50.234;19.292;2022-10-18T06:30:35;28.90;;;17.20;;
69126;SDS011;56688;50.234;19.292;2022-10-18T06:33:02;31.30;;;17.10;;
69126;SDS011;56688;50.234;19.292;2022-10-18T06:35:29;26.70;;;15.60;;
69126;SDS011;56688;50.234;19.292;2022-10-18T06:37:56;34.00;;;18.80;;
69126;SDS011;56688;50.234;19.292;2022-10-18T06:40:23;34.60;;;19.80;;
69126;SDS011;56688;50.234;19.292;2022-10-18T06:42:50;39.10;;;20.90;;
69126;SDS011;56688;50.234;19.292;2022-10-18T06:45:35;35.90;;;21.40;;
69126;SDS011;56688;50.234;19.292;2022-10-18T06:48:02;73.90;;;35.00;;
69126;SDS011;56688;50.234;19.292;2022-10-18T06:50:29;81.50;;;39.60;;
69126;SDS011;56688;50.234;19.292;2022-10-18T06:52:57;123.80;;;58.10;;
69126;SDS011;56688;50.234;19.292;2022-10-18T06:55:24;88.10;;;42.50;;
69126;SDS011;56688;50.234;19.292;2022-10-18T06:57:51;82.30;;;37.80;;
69126;SDS011;56688;50.234;19.292;2022-10-18T07:00:18;56.60;;;28.00;;
69126;SDS011;56688;50.234;19.292;2022-10-18T07:02:45;43.90;;;25.10;;
69126;SDS011;56688;50.234;19.292;2022-10-18T07:05:12;46.10;;;27.60;;
69126;SDS011;56688;50.234;19.292;2022-10-18T07:07:39;36.20;;;22.70;;
69126;SDS011;56688;50.234;19.292;2022-10-18T07:10:06;40.70;;;24.10;;
69126;SDS011;56688;50.234;19.292;2022-10-18T07:12:38;31.80;;;20.20;;
69126;SDS011;56688;50.234;19.292;2022-10-18T07:15:05;29.60;;;18.80;;
69126;SDS011;56688;50.234;19.292;2022-10-18T07:17:35;17.70;;;8.60;;
69126;SDS011;56688;50.234;19.292;2022-10-18T07:20:02;16.80;;;8.60;;
69126;SDS011;56688;50.234;19.292;2022-10-18T07:22:29;20.70;;;11.30;;
69126;SDS011;56688;50.234;19.292;2022-10-18T07:24:56;17.60;;;10.20;;
69126;SDS011;56688;50.234;19.292;2022-10-18T07:27:23;13.20;;;8.60;;
69126;SDS011;56688;50.234;19.292;2022-10-18T07:29:50;12.30;;;6.80;;
69126;SDS011;56688;50.234;19.292;2022-10-18T07:32:16;13.30;;;6.50;;
69126;SDS011;56688;50.234;19.292;2022-10-18T07:34:43;15.20;;;6.70;;
69126;SDS011;56688;50.234;19.292;2022-10-18T07:37:10;13.20;;;6.70;;
69126;SDS011;56688;50.234;19.292;2022-10-18T07:39:37;14.80;;;7.10;;
69126;SDS011;56688;50.234;19.292;2022-10-18T07:42:04;12.10;;;6.80;;
69126;SDS011;56688;50.234;19.292;2022-10-18T07:44:30;34.10;;;16.90;;
69126;SDS011;56688;50.234;19.292;2022-10-18T07:46:57;115.30;;;50.50;;
69126;SDS011;56688;50.234;19.292;2022-10-18T07:49:24;45.20;;;21.10;;
69126;SDS011;56688;50.234;19.292;2022-10-18T07:51:51;30.90;;;14.70;;
69126;SDS011;56688;50.234;19.292;2022-10-18T07:54:18;22.70;;;13.90;;
69126;SDS011;56688;50.234;19.292;2022-10-18T07:56:45;24.20;;;13.30;;
69126;SDS011;56688;50.234;19.292;2022-10-18T07:59:12;31.10;;;11.50;;
69126;SDS011;56688;50.234;19.292;2022-10-18T08:01:39;13.00;;;5.60;;
69126;SDS011;56688;50.234;19.292;2022-10-18T08:04:06;9.70;;;6.10;;
69126;SDS011;56688;50.234;19.292;2022-10-18T08:06:39;10.80;;;5.50;;
69126;SDS011;56688;50.234;19.292;2022-10-18T08:09:08;10.60;;;5.50;;
69126;SDS011;56688;50.234;19.292;2022-10-18T08:11:36;10.50;;;5.40;;
69126;SDS011;56688;50.234;19.292;2022-10-18T08:14:04;8.60;;;5.60;;
69126;SDS011;56688;50.234;19.292;2022-10-18T08:16:31;14.50;;;5.80;;
69126;SDS011;56688;50.234;19.292;2022-10-18T08:18:57;20.70;;;6.00;;
69126;SDS011;56688;50.234;19.292;2022-10-18T08:21:24;13.00;;;5.60;;
69126;SDS011;56688;50.234;19.292;2022-10-18T08:23:52;13.10;;;5.70;;
69126;SDS011;56688;50.234;19.292;2022-10-18T08:26:20;15.70;;;6.30;;
69126;SDS011;56688;50.234;19.292;2022-10-18T08:28:48;21.20;;;5.90;;
69126;SDS011;56688;50.234;19.292;2022-10-18T08:31:35;17.50;;;5.80;;
69126;SDS011;56688;50.234;19.292;2022-10-18T08:34:01;15.50;;;5.70;;
69126;SDS011;56688;50.234;19.292;2022-10-18T08:36:28;23.10;;;5.80;;
69126;SDS011;56688;50.234;19.292;2022-10-18T08:38:55;29.40;;;6.90;;
69126;SDS011;56688;50.234;19.292;2022-10-18T08:44:15;17.60;;;6.10;;
69126;SDS011;56688;50.234;19.292;2022-10-18T08:46:45;15.40;;;4.90;;
69126;SDS011;56688;50.234;19.292;2022-10-18T08:51:59;7.30;;;4.00;;
69126;SDS011;56688;50.234;19.292;2022-10-18T08:54:36;12.10;;;5.00;;
69126;SDS011;56688;50.234;19.292;2022-10-18T08:57:12;9.60;;;5.90;;
69126;SDS011;56688;50.234;19.292;2022-10-18T08:59:41;9.70;;;5.80;;
69126;SDS011;56688;50.234;19.292;2022-10-18T09:05:13;8.60;;;4.20;;
69126;SDS011;56688;50.234;19.292;2022-10-18T09:10:58;10.50;;;5.00;;
69126;SDS011;56688;50.234;19.292;2022-10-18T09:13:43;7.10;;;4.20;;
69126;SDS011;56688;50.234;19.292;2022-10-18T09:16:15;9.10;;;3.90;;
69126;SDS011;56688;50.234;19.292;2022-10-18T09:24:10;5.50;;;3.70;;
69126;SDS011;56688;50.234;19.292;2022-10-18T09:26:43;7.20;;;3.80;;
69126;SDS011;56688;50.234;19.292;2022-10-18T09:32:13;12.00;;;4.80;;
69126;SDS011;56688;50.234;19.292;2022-10-18T09:35:04;11.10;;;4.60;;
69126;SDS011;56688;50.234;19.292;2022-10-18T09:37:40;7.40;;;3.60;;
69126;SDS011;56688;50.234;19.292;2022-10-18T09:40:18;7.30;;;4.10;;
69126;SDS011;56688;50.234;19.292;2022-10-18T09:45:39;6.10;;;3.80;;
69126;SDS011;56688;50.234;19.292;2022-10-18T09:50:51;8.90;;;3.80;;
69126;SDS011;56688;50.234;19.292;2022-10-18T09:53:26;7.20;;;3.60;;
69126;SDS011;56688;50.234;19.292;2022-10-18T09:56:05;11.70;;;4.20;;
69126;SDS011;56688;50.234;19.292;2022-10-18T09:58:45;7.80;;;3.80;;
69126;SDS011;56688;50.234;19.292;2022-10-18T10:01:14;9.50;;;4.20;;
69126;SDS011;56688;50.234;19.292;2022-10-18T10:03:47;6.60;;;4.30;;
69126;SDS011;56688;50.234;19.292;2022-10-18T10:06:16;10.30;;;4.10;;
69126;SDS011;56688;50.234;19.292;2022-10-18T10:08:52;8.70;;;4.20;;
69126;SDS011;56688;50.234;19.292;2022-10-18T10:11:26;11.60;;;4.40;;
69126;SDS011;56688;50.234;19.292;2022-10-18T10:13:57;13.20;;;4.50;;
69126;SDS011;56688;50.234;19.292;2022-10-18T10:16:33;11.70;;;6.30;;
69126;SDS011;56688;50.234;19.292;2022-10-18T10:19:18;7.40;;;4.50;;
69126;SDS011;56688;50.234;19.292;2022-10-18T10:21:50;7.00;;;3.70;;
69126;SDS011;56688;50.234;19.292;2022-10-18T10:24:23;9.40;;;3.80;;
69126;SDS011;56688;50.234;19.292;2022-10-18T10:26:58;8.80;;;4.10;;
69126;SDS011;56688;50.234;19.292;2022-10-18T10:32:13;10.60;;;4.30;;
69126;SDS011;56688;50.234;19.292;2022-10-18T10:34:41;7.80;;;3.80;;
69126;SDS011;56688;50.234;19.292;2022-10-18T10:51:39;12.80;;;4.40;;
69126;SDS011;56688;50.234;19.292;2022-10-18T11:07:49;5.10;;;3.50;;
69126;SDS011;56688;50.234;19.292;2022-10-18T11:10:21;5.70;;;3.30;;
69126;SDS011;56688;50.234;19.292;2022-10-18T11:12:55;6.70;;;3.20;;
69126;SDS011;56688;50.234;19.292;2022-10-18T11:20:47;9.20;;;3.80;;
69126;SDS011;56688;50.234;19.292;2022-10-18T11:23:26;5.40;;;3.20;;
69126;SDS011;56688;50.234;19.292;2022-10-18T11:31:11;10.00;;;3.60;;
69126;SDS011;56688;50.234;19.292;2022-10-18T11:42:56;9.30;;;4.10;;
69126;SDS011;56688;50.234;19.292;2022-10-18T11:51:09;8.10;;;3.70;;
69126;SDS011;56688;50.234;19.292;2022-10-18T11:54:09;9.90;;;3.70;;
69126;SDS011;56688;50.234;19.292;2022-10-18T11:59:37;5.90;;;3.70;;
69126;SDS011;56688;50.234;19.292;2022-10-18T12:05:00;6.50;;;3.10;;
69126;SDS011;56688;50.234;19.292;2022-10-18T12:07:55;7.70;;;4.40;;
69126;SDS011;56688;50.234;19.292;2022-10-18T12:10:29;6.30;;;3.40;;
69126;SDS011;56688;50.234;19.292;2022-10-18T12:13:21;7.60;;;3.60;;
69126;SDS011;56688;50.234;19.292;2022-10-18T12:16:06;15.40;;;3.30;;
69126;SDS011;56688;50.234;19.292;2022-10-18T12:18:35;5.00;;;3.20;;
69126;SDS011;56688;50.234;19.292;2022-10-18T12:21:11;6.00;;;3.10;;
69126;SDS011;56688;50.234;19.292;2022-10-18T12:26:25;3.70;;;2.40;;
69126;SDS011;56688;50.234;19.292;2022-10-18T12:31:23;5.10;;;2.90;;
69126;SDS011;56688;50.234;19.292;2022-10-18T12:34:00;6.30;;;3.40;;
69126;SDS011;56688;50.234;19.292;2022-10-18T12:36:43;10.10;;;5.80;;
69126;SDS011;56688;50.234;19.292;2022-10-18T12:39:33;9.50;;;3.40;;
69126;SDS011;56688;50.234;19.292;2022-10-18T12:42:17;4.90;;;3.20;;
69126;SDS011;56688;50.234;19.292;2022-10-18T12:44:47;7.00;;;3.20;;
69126;SDS011;56688;50.234;19.292;2022-10-18T12:47:20;7.20;;;3.90;;
69126;SDS011;56688;50.234;19.292;2022-10-18T12:49:57;4.60;;;2.70;;
69126;SDS011;56688;50.234;19.292;2022-10-18T12:52:29;4.20;;;3.00;;
69126;SDS011;56688;50.234;19.292;2022-10-18T13:28:20;6.00;;;3.30;;
69126;SDS011;56688;50.234;19.292;2022-10-18T13:31:15;5.80;;;3.40;;
69126;SDS011;56688;50.234;19.292;2022-10-18T13:33:48;10.30;;;3.50;;
69126;SDS011;56688;50.234;19.292;2022-10-18T13:36:19;8.60;;;3.70;;
69126;SDS011;56688;50.234;19.292;2022-10-18T13:44:25;8.40;;;3.70;;
69126;SDS011;56688;50.234;19.292;2022-10-18T13:47:34;9.50;;;3.70;;
69126;SDS011;56688;50.234;19.292;2022-10-18T13:50:24;8.00;;;4.40;;
69126;SDS011;56688;50.234;19.292;2022-10-18T13:53:07;9.80;;;4.30;;
69126;SDS011;56688;50.234;19.292;2022-10-18T13:55:51;9.80;;;4.40;;
69126;SDS011;56688;50.234;19.292;2022-10-18T14:01:50;10.30;;;4.00;;
69126;SDS011;56688;50.234;19.292;2022-10-18T14:07:57;9.60;;;4.50;;
69126;SDS011;56688;50.234;19.292;2022-10-18T14:10:41;11.90;;;4.20;;
69126;SDS011;56688;50.234;19.292;2022-10-18T14:19:16;9.50;;;4.10;;
69126;SDS011;56688;50.234;19.292;2022-10-18T14:21:58;8.40;;;4.80;;
69126;SDS011;56688;50.234;19.292;2022-10-18T14:32:41;8.90;;;4.40;;
69126;SDS011;56688;50.234;19.292;2022-10-18T14:35:17;7.60;;;4.30;;
69126;SDS011;56688;50.234;19.292;2022-10-18T14:38:02;10.20;;;4.90;;
69126;SDS011;56688;50.234;19.292;2022-10-18T14:40:34;9.00;;;5.00;;
69126;SDS011;56688;50.234;19.292;2022-10-18T14:43:03;11.40;;;6.30;;
69126;SDS011;56688;50.234;19.292;2022-10-18T14:45:36;30.10;;;15.70;;
69126;SDS011;56688;50.234;19.292;2022-10-18T14:48:04;13.10;;;6.50;;
69126;SDS011;56688;50.234;19.292;2022-10-18T14:50:33;13.30;;;6.90;;
69126;SDS011;56688;50.234;19.292;2022-10-18T14:53:04;9.70;;;5.00;;
69126;SDS011;56688;50.234;19.292;2022-10-18T14:55:33;12.40;;;4.80;;
69126;SDS011;56688;50.234;19.292;2022-10-18T14:58:01;11.80;;;5.10;;
69126;SDS011;56688;50.234;19.292;2022-10-18T15:00:31;8.80;;;4.60;;
69126;SDS011;56688;50.234;19.292;2022-10-18T15:03:03;9.70;;;4.60;;
69126;SDS011;56688;50.234;19.292;2022-10-18T15:05:34;9.30;;;4.80;;
69126;SDS011;56688;50.234;19.292;2022-10-18T15:08:00;14.20;;;5.10;;
69126;SDS011;56688;50.234;19.292;2022-10-18T15:10:29;8.70;;;5.30;;
69126;SDS011;56688;50.234;19.292;2022-10-18T15:12:58;11.50;;;5.80;;
69126;SDS011;56688;50.234;19.292;2022-10-18T15:15:36;13.60;;;5.40;;
69126;SDS011;56688;50.234;19.292;2022-10-18T15:18:05;12.50;;;5.60;;
69126;SDS011;56688;50.234;19.292;2022-10-18T15:20:35;9.60;;;4.90;;
69126;SDS011;56688;50.234;19.292;2022-10-18T15:23:23;15.90;;;5.80;;
69126;SDS011;56688;50.234;19.292;2022-10-18T15:25:58;12.50;;;6.00;;
69126;SDS011;56688;50.234;19.292;2022-10-18T15:28:30;14.20;;;6.90;;
69126;SDS011;56688;50.234;19.292;2022-10-18T15:31:01;15.60;;;6.20;;
69126;SDS011;56688;50.234;19.292;2022-10-18T15:33:28;14.00;;;6.10;;
69126;SDS011;56688;50.234;19.292;2022-10-18T15:36:08;12.40;;;6.10;;
69126;SDS011;56688;50.234;19.292;2022-10-18T15:38:36;9.40;;;6.00;;
69126;SDS011;56688;50.234;19.292;2022-10-18T15:44:06;14.20;;;5.90;;
69126;SDS011;56688;50.234;19.292;2022-10-18T15:46:39;11.50;;;5.10;;
69126;SDS011;56688;50.234;19.292;2022-10-18T15:51:54;10.50;;;5.20;;
69126;SDS011;56688;50.234;19.292;2022-10-18T15:54:54;9.80;;;5.50;;
69126;SDS011;56688;50.234;19.292;2022-10-18T15:57:21;12.00;;;5.90;;
69126;SDS011;56688;50.234;19.292;2022-10-18T15:59:58;13.40;;;5.90;;
69126;SDS011;56688;50.234;19.292;2022-10-18T16:02:37;12.00;;;6.30;;
69126;SDS011;56688;50.234;19.292;2022-10-18T16:05:04;14.90;;;7.60;;
69126;SDS011;56688;50.234;19.292;2022-10-18T16:07:31;14.40;;;7.10;;
69126;SDS011;56688;50.234;19.292;2022-10-18T16:09:58;13.40;;;6.50;;
69126;SDS011;56688;50.234;19.292;2022-10-18T16:12:25;11.10;;;5.70;;
69126;SDS011;56688;50.234;19.292;2022-10-18T16:14:52;15.50;;;6.70;;
69126;SDS011;56688;50.234;19.292;2022-10-18T16:17:19;12.70;;;6.40;;
69126;SDS011;56688;50.234;19.292;2022-10-18T16:19:48;11.80;;;6.60;;
69126;SDS011;56688;50.234;19.292;2022-10-18T16:22:15;11.20;;;7.10;;
69126;SDS011;56688;50.234;19.292;2022-10-18T16:24:47;11.60;;;6.00;;
69126;SDS011;56688;50.234;19.292;2022-10-18T16:27:15;13.90;;;6.60;;
69126;SDS011;56688;50.234;19.292;2022-10-18T16:29:42;12.90;;;6.00;;
69126;SDS011;56688;50.234;19.292;2022-10-18T16:32:09;14.30;;;7.10;;
69126;SDS011;56688;50.234;19.292;2022-10-18T16:34:38;10.40;;;6.50;;
69126;SDS011;56688;50.234;19.292;2022-10-18T16:37:07;16.90;;;7.60;;
69126;SDS011;56688;50.234;19.292;2022-10-18T16:39:37;14.40;;;7.30;;
69126;SDS011;56688;50.234;19.292;2022-10-18T16:42:04;12.30;;;6.90;;
69126;SDS011;56688;50.234;19.292;2022-10-18T16:44:32;12.10;;;7.00;;
69126;SDS011;56688;50.234;19.292;2022-10-18T16:46:59;11.10;;;7.50;;
69126;SDS011;56688;50.234;19.292;2022-10-18T16:49:26;16.80;;;7.60;;
69126;SDS011;56688;50.234;19.292;2022-10-18T16:51:53;14.60;;;8.10;;
69126;SDS011;56688;50.234;19.292;2022-10-18T16:54:21;16.50;;;8.00;;
69126;SDS011;56688;50.234;19.292;2022-10-18T16:56:49;16.70;;;7.70;;
69126;SDS011;56688;50.234;19.292;2022-10-18T16:59:19;8.80;;;6.10;;
69126;SDS011;56688;50.234;19.292;2022-10-18T17:01:50;15.30;;;7.90;;
69126;SDS011;56688;50.234;19.292;2022-10-18T17:04:20;15.60;;;7.50;;
69126;SDS011;56688;50.234;19.292;2022-10-18T17:06:47;12.30;;;8.00;;
69126;SDS011;56688;50.234;19.292;2022-10-18T17:09:15;13.40;;;7.30;;
69126;SDS011;56688;50.234;19.292;2022-10-18T17:11:43;17.40;;;7.70;;
69126;SDS011;56688;50.234;19.292;2022-10-18T17:14:11;13.80;;;7.10;;
69126;SDS011;56688;50.234;19.292;2022-10-18T17:16:38;15.20;;;7.90;;
69126;SDS011;56688;50.234;19.292;2022-10-18T17:19:11;13.40;;;7.60;;
69126;SDS011;56688;50.234;19.292;2022-10-18T17:21:38;15.00;;;7.40;;
69126;SDS011;56688;50.234;19.292;2022-10-18T17:24:06;13.00;;;7.80;;
69126;SDS011;56688;50.234;19.292;2022-10-18T17:26:33;15.90;;;8.60;;